createdAt,value
2023-05-15T00:02:19.663Z,0
2023-05-15T00:12:19.331Z,0
2023-05-15T00:22:19.573Z,0
2023-05-15T00:32:19.689Z,0
2023-05-15T00:42:19.540Z,0
2023-05-15T00:52:19.750Z,0
2023-05-15T01:02:20.630Z,0
2023-05-15T01:12:19.974Z,0
2023-05-15T01:22:20.492Z,0
2023-05-15T01:32:21.043Z,0
2023-05-15T01:42:21.157Z,0
2023-05-15T01:52:21.299Z,0
2023-05-15T02:02:20.353Z,1288.3
2023-05-15T02:12:20.109Z,1288.3
2023-05-15T02:22:19.770Z,1288.3
2023-05-15T02:32:19.438Z,1288.3
2023-05-15T02:42:18.341Z,1288.3
2023-05-15T02:52:19.203Z,1288.3
2023-05-15T03:02:08.403Z,0
2023-05-15T03:12:10.009Z,0
2023-05-15T03:22:10.928Z,0
2023-05-15T03:32:11.374Z,0
2023-05-15T03:42:11.604Z,0
2023-05-15T03:52:12.200Z,0
2023-05-15T04:02:12.450Z,0
2023-05-15T04:12:14.524Z,0
2023-05-15T04:22:15.985Z,0
2023-05-15T04:32:18.480Z,0
2023-05-15T04:42:20.773Z,0
2023-05-15T04:52:22.953Z,0
2023-05-15T05:02:23.842Z,0
2023-05-15T05:12:25.982Z,0
2023-05-15T05:22:24.928Z,0
2023-05-15T05:32:25.657Z,0
2023-05-15T05:42:25.998Z,0
2023-05-15T05:52:27.646Z,0
2023-05-15T06:02:28.154Z,0
2023-05-15T06:12:29.276Z,0
2023-05-15T06:22:32.431Z,0
2023-05-15T06:32:40.418Z,0
2023-05-15T06:42:55.896Z,0
2023-05-15T06:53:11.682Z,0
2023-05-15T07:03:26.867Z,0
2023-05-15T07:13:41.226Z,0
2023-05-15T07:23:57.570Z,0
2023-05-15T07:33:58.761Z,0
2023-05-15T07:44:02.102Z,0
2023-05-15T07:54:04.053Z,0
2023-05-15T08:04:04.596Z,0
2023-05-15T08:14:07.208Z,0
2023-05-15T08:24:10.192Z,0
2023-05-15T08:34:12.951Z,0
2023-05-15T08:44:17.895Z,0
2023-05-15T08:54:22.947Z,0
2023-05-15T09:02:06.940Z,0
2023-05-15T09:12:07.399Z,0
2023-05-15T09:22:09.448Z,0
2023-05-15T09:32:14.921Z,0
2023-05-15T09:42:25.078Z,0
2023-05-15T09:52:34.167Z,0
2023-05-15T10:02:42.951Z,0
2023-05-15T10:12:48.584Z,0
2023-05-15T10:22:55.553Z,0
2023-05-15T10:33:01.891Z,0
2023-05-15T10:43:07.065Z,0
2023-05-15T10:53:14.012Z,0
2023-05-15T11:03:16.012Z,0
2023-05-15T11:13:16.181Z,0
2023-05-15T11:23:19.827Z,0
2023-05-15T11:33:25.535Z,0
2023-05-15T11:43:38.909Z,0
2023-05-15T11:53:52.111Z,0
2023-05-15T12:04:06.898Z,0
2023-05-15T12:14:14.227Z,0
2023-05-15T12:24:23.568Z,0
2023-05-15T12:34:32.341Z,0
2023-05-15T12:44:47.752Z,0
2023-05-15T12:55:02.007Z,0
2023-05-15T13:05:13.991Z,1918.6
2023-05-15T13:15:24.941Z,1918.6
2023-05-15T13:25:35.218Z,1918.6
2023-05-15T13:35:45.874Z,1918.6
2023-05-15T13:45:56.951Z,1918.6
2023-05-15T13:56:06.175Z,1918.6
2023-05-15T14:06:23.653Z,103.4
2023-05-15T14:16:42.647Z,99.3
2023-05-15T14:26:58.005Z,104.1
2023-05-15T14:37:14.447Z,106.4
2023-05-15T14:47:28.997Z,107.8
2023-05-15T14:57:43.091Z,105.6
2023-05-15T15:02:11.963Z,105.1
2023-05-15T15:12:21.525Z,105.4
2023-05-15T15:22:29.011Z,105.4
2023-05-15T15:32:31.280Z,105.4
2023-05-15T15:42:31.692Z,105.4
2023-05-15T15:52:31.030Z,105.4
2023-05-15T16:02:31.299Z,105.4
2023-05-15T16:12:31.651Z,105.4
2023-05-15T16:22:31.120Z,105.4
2023-05-15T16:32:33.136Z,105.4
2023-05-15T16:42:35.752Z,105.4
2023-05-15T16:52:38.905Z,105.4
2023-05-15T17:02:40.122Z,105.4
2023-05-15T17:12:41.222Z,105.4
2023-05-15T17:22:42.007Z,105.4
2023-05-15T17:32:43.103Z,105.4
2023-05-15T17:42:43.548Z,105.4
2023-05-15T17:52:43.494Z,105.4
2023-05-15T18:02:43.491Z,105.4
2023-05-15T18:12:43.474Z,105.4
2023-05-15T18:22:42.882Z,105.4
2023-05-15T18:32:43.900Z,105.4
2023-05-15T18:42:43.151Z,105.4
2023-05-15T18:52:43.325Z,105.4
2023-05-15T19:02:45.312Z,105.4
2023-05-15T19:12:45.190Z,105.4
2023-05-15T19:22:44.992Z,105.4
2023-05-15T19:32:45.523Z,105.4
2023-05-15T19:42:46.267Z,105.4
2023-05-15T19:52:47.094Z,105.4
2023-05-15T20:02:48.047Z,105.4
2023-05-15T20:12:47.506Z,105.4
2023-05-15T20:22:47.357Z,105.4
2023-05-15T20:32:47.892Z,105.4
2023-05-15T20:42:47.281Z,105.4
2023-05-15T20:52:50.011Z,105.4
2023-05-15T21:02:08.638Z,0
2023-05-15T21:12:08.788Z,0
2023-05-15T21:22:08.366Z,0
2023-05-15T21:32:08.609Z,0
2023-05-15T21:42:08.813Z,0
2023-05-15T21:52:08.929Z,0
2023-05-15T22:02:09.896Z,0
2023-05-15T22:12:10.622Z,0
2023-05-15T22:22:13.436Z,0
2023-05-15T22:32:14.802Z,0
2023-05-15T22:42:16.100Z,0
2023-05-15T22:52:16.858Z,0
2023-05-15T23:02:17.175Z,0
2023-05-15T23:12:17.319Z,0
2023-05-15T23:22:16.784Z,0
2023-05-15T23:32:17.279Z,0
2023-05-15T23:42:17.513Z,0
2023-05-15T23:52:18.122Z,0
